Weather at Brisbane Archerfield Airport

Public forecast

Using degrees Celsius for public forecast. Weather courtesy of forecast.io.

Closest aviation weather report (METAR) to Brisbane Archerfield Airport

Closest report is Brisbane International Airport, 12.6 nm (23.3 km) NNE. Retrieved 2021/07/24 00:30 UTC (12 minutes ago):

YBBN 240030Z 27017KT 9999 FEW020 21/12 Q1009

Closest aviation forecast (TAF) to Brisbane Archerfield Airport

Forecast is more than 6 hours old.

Closest forecast is Brisbane International Airport, 12.6 nm (23.3 km) NNE. Retrieved 2021/07/23 17:00 UTC (8 hours ago):

TAF YBBN 231730Z 2317/2500 25005KT 9999 SCT005 BECMG 2322/2323 27015G26KT CAVOK FM240800 26010KT CAVOK PROB40 2318/2322 0300 FG